sensor_id;sensor_type;location;lat;lon;timestamp;P1;durP1;ratioP1;P2;durP2;ratioP2
19111;SDS011;9688;51.906;8.376;2023-02-17T00:02:29;38.37;;;23.10;;
19111;SDS011;9688;51.906;8.376;2023-02-17T00:05:15;37.27;;;22.50;;
19111;SDS011;9688;51.906;8.376;2023-02-17T00:08:01;31.57;;;20.43;;
19111;SDS011;9688;51.906;8.376;2023-02-17T00:10:53;31.90;;;20.87;;
19111;SDS011;9688;51.906;8.376;2023-02-17T00:13:42;34.40;;;21.20;;
19111;SDS011;9688;51.906;8.376;2023-02-17T00:16:28;32.40;;;21.30;;
19111;SDS011;9688;51.906;8.376;2023-02-17T00:19:14;32.13;;;20.97;;
19111;SDS011;9688;51.906;8.376;2023-02-17T00:22:09;32.30;;;20.67;;
19111;SDS011;9688;51.906;8.376;2023-02-17T00:24:54;34.30;;;20.70;;
19111;SDS011;9688;51.906;8.376;2023-02-17T00:27:40;33.30;;;19.97;;
19111;SDS011;9688;51.906;8.376;2023-02-17T00:30:27;33.07;;;19.80;;
19111;SDS011;9688;51.906;8.376;2023-02-17T00:33:13;28.00;;;18.67;;
19111;SDS011;9688;51.906;8.376;2023-02-17T00:36:01;30.07;;;17.43;;
19111;SDS011;9688;51.906;8.376;2023-02-17T00:38:49;27.57;;;18.10;;
19111;SDS011;9688;51.906;8.376;2023-02-17T00:41:35;28.63;;;18.33;;
19111;SDS011;9688;51.906;8.376;2023-02-17T00:44:21;26.90;;;18.07;;
19111;SDS011;9688;51.906;8.376;2023-02-17T00:47:09;25.63;;;17.30;;
19111;SDS011;9688;51.906;8.376;2023-02-17T00:49:55;27.57;;;16.93;;
19111;SDS011;9688;51.906;8.376;2023-02-17T00:52:41;27.53;;;17.77;;
19111;SDS011;9688;51.906;8.376;2023-02-17T00:55:26;26.03;;;17.97;;
19111;SDS011;9688;51.906;8.376;2023-02-17T00:58:12;30.07;;;17.30;;
19111;SDS011;9688;51.906;8.376;2023-02-17T01:00:58;25.07;;;17.30;;
19111;SDS011;9688;51.906;8.376;2023-02-17T01:03:46;25.50;;;17.20;;
19111;SDS011;9688;51.906;8.376;2023-02-17T01:06:32;28.93;;;18.07;;
19111;SDS011;9688;51.906;8.376;2023-02-17T01:09:20;34.27;;;19.97;;
19111;SDS011;9688;51.906;8.376;2023-02-17T01:12:05;27.37;;;18.03;;
19111;SDS011;9688;51.906;8.376;2023-02-17T01:14:51;32.37;;;18.60;;
19111;SDS011;9688;51.906;8.376;2023-02-17T01:17:37;31.27;;;18.80;;
19111;SDS011;9688;51.906;8.376;2023-02-17T01:20:24;32.10;;;20.20;;
19111;SDS011;9688;51.906;8.376;2023-02-17T01:23:10;34.87;;;19.77;;
19111;SDS011;9688;51.906;8.376;2023-02-17T01:25:57;30.53;;;18.73;;
19111;SDS011;9688;51.906;8.376;2023-02-17T01:28:42;28.50;;;19.17;;
19111;SDS011;9688;51.906;8.376;2023-02-17T01:31:28;31.30;;;19.70;;
19111;SDS011;9688;51.906;8.376;2023-02-17T01:34:14;36.73;;;21.33;;
19111;SDS011;9688;51.906;8.376;2023-02-17T01:37:01;35.20;;;20.47;;
19111;SDS011;9688;51.906;8.376;2023-02-17T01:39:48;37.50;;;22.27;;
19111;SDS011;9688;51.906;8.376;2023-02-17T01:42:33;32.57;;;21.17;;
19111;SDS011;9688;51.906;8.376;2023-02-17T01:48:31;39.47;;;21.93;;
19111;SDS011;9688;51.906;8.376;2023-02-17T01:51:22;37.80;;;21.63;;
19111;SDS011;9688;51.906;8.376;2023-02-17T01:54:14;37.07;;;21.70;;
19111;SDS011;9688;51.906;8.376;2023-02-17T01:57:03;35.10;;;21.57;;
19111;SDS011;9688;51.906;8.376;2023-02-17T01:59:49;34.80;;;22.23;;
19111;SDS011;9688;51.906;8.376;2023-02-17T02:02:35;38.83;;;23.03;;
19111;SDS011;9688;51.906;8.376;2023-02-17T02:05:22;41.50;;;23.77;;
19111;SDS011;9688;51.906;8.376;2023-02-17T02:08:08;42.33;;;23.83;;
19111;SDS011;9688;51.906;8.376;2023-02-17T02:10:57;35.97;;;23.37;;
19111;SDS011;9688;51.906;8.376;2023-02-17T02:13:42;38.60;;;23.87;;
19111;SDS011;9688;51.906;8.376;2023-02-17T02:16:30;37.47;;;23.17;;
19111;SDS011;9688;51.906;8.376;2023-02-17T02:19:27;41.80;;;23.87;;
19111;SDS011;9688;51.906;8.376;2023-02-17T02:25:56;41.63;;;23.13;;
19111;SDS011;9688;51.906;8.376;2023-02-17T02:29:10;41.43;;;24.03;;
19111;SDS011;9688;51.906;8.376;2023-02-17T02:32:29;37.57;;;22.83;;
19111;SDS011;9688;51.906;8.376;2023-02-17T02:35:30;38.50;;;22.20;;
19111;SDS011;9688;51.906;8.376;2023-02-17T02:38:23;39.77;;;22.43;;
19111;SDS011;9688;51.906;8.376;2023-02-17T02:41:14;37.70;;;22.63;;
19111;SDS011;9688;51.906;8.376;2023-02-17T02:44:06;38.17;;;21.80;;
19111;SDS011;9688;51.906;8.376;2023-02-17T02:46:57;36.00;;;22.70;;
19111;SDS011;9688;51.906;8.376;2023-02-17T02:49:44;35.67;;;22.17;;
19111;SDS011;9688;51.906;8.376;2023-02-17T02:52:31;40.60;;;22.83;;
19111;SDS011;9688;51.906;8.376;2023-02-17T02:55:29;39.67;;;23.73;;
19111;SDS011;9688;51.906;8.376;2023-02-17T02:58:28;37.87;;;22.33;;
19111;SDS011;9688;51.906;8.376;2023-02-17T03:01:23;35.43;;;22.50;;
19111;SDS011;9688;51.906;8.376;2023-02-17T03:04:22;42.97;;;23.60;;
19111;SDS011;9688;51.906;8.376;2023-02-17T03:07:21;37.20;;;21.83;;
19111;SDS011;9688;51.906;8.376;2023-02-17T03:10:15;34.37;;;20.93;;
19111;SDS011;9688;51.906;8.376;2023-02-17T03:13:05;43.07;;;22.33;;
19111;SDS011;9688;51.906;8.376;2023-02-17T03:15:50;36.83;;;22.57;;
19111;SDS011;9688;51.906;8.376;2023-02-17T03:18:36;35.73;;;20.50;;
19111;SDS011;9688;51.906;8.376;2023-02-17T03:21:22;39.07;;;22.93;;
19111;SDS011;9688;51.906;8.376;2023-02-17T03:24:14;34.37;;;21.53;;
19111;SDS011;9688;51.906;8.376;2023-02-17T03:27:01;38.23;;;21.53;;
19111;SDS011;9688;51.906;8.376;2023-02-17T03:29:47;38.20;;;21.37;;
19111;SDS011;9688;51.906;8.376;2023-02-17T03:32:32;34.13;;;21.37;;
19111;SDS011;9688;51.906;8.376;2023-02-17T03:35:18;39.83;;;22.63;;
19111;SDS011;9688;51.906;8.376;2023-02-17T03:38:04;33.67;;;20.73;;
19111;SDS011;9688;51.906;8.376;2023-02-17T03:40:52;37.00;;;22.10;;
19111;SDS011;9688;51.906;8.376;2023-02-17T03:43:37;33.87;;;21.00;;
19111;SDS011;9688;51.906;8.376;2023-02-17T03:46:23;38.17;;;21.77;;
19111;SDS011;9688;51.906;8.376;2023-02-17T03:49:09;33.83;;;20.57;;
19111;SDS011;9688;51.906;8.376;2023-02-17T03:51:54;31.87;;;20.90;;
19111;SDS011;9688;51.906;8.376;2023-02-17T03:54:41;37.10;;;21.77;;
19111;SDS011;9688;51.906;8.376;2023-02-17T03:57:28;36.90;;;22.13;;
19111;SDS011;9688;51.906;8.376;2023-02-17T04:00:15;36.63;;;22.03;;
19111;SDS011;9688;51.906;8.376;2023-02-17T04:03:01;34.00;;;21.20;;
19111;SDS011;9688;51.906;8.376;2023-02-17T04:05:48;39.90;;;21.80;;
19111;SDS011;9688;51.906;8.376;2023-02-17T04:08:33;34.90;;;21.27;;
19111;SDS011;9688;51.906;8.376;2023-02-17T04:11:19;33.73;;;21.53;;
19111;SDS011;9688;51.906;8.376;2023-02-17T04:14:06;36.67;;;21.70;;
19111;SDS011;9688;51.906;8.376;2023-02-17T04:16:52;35.43;;;21.67;;
19111;SDS011;9688;51.906;8.376;2023-02-17T04:19:38;38.27;;;22.70;;
19111;SDS011;9688;51.906;8.376;2023-02-17T04:22:24;40.63;;;23.27;;
19111;SDS011;9688;51.906;8.376;2023-02-17T04:25:10;36.90;;;22.83;;
19111;SDS011;9688;51.906;8.376;2023-02-17T04:27:56;37.30;;;22.87;;
19111;SDS011;9688;51.906;8.376;2023-02-17T04:30:44;39.87;;;24.00;;
19111;SDS011;9688;51.906;8.376;2023-02-17T04:33:30;38.50;;;22.87;;
19111;SDS011;9688;51.906;8.376;2023-02-17T04:36:16;38.97;;;23.27;;
19111;SDS011;9688;51.906;8.376;2023-02-17T04:39:02;42.67;;;23.60;;
19111;SDS011;9688;51.906;8.376;2023-02-17T04:41:48;42.70;;;24.00;;
19111;SDS011;9688;51.906;8.376;2023-02-17T04:44:34;42.47;;;24.20;;
19111;SDS011;9688;51.906;8.376;2023-02-17T04:47:21;38.67;;;23.33;;
19111;SDS011;9688;51.906;8.376;2023-02-17T04:50:08;36.03;;;22.57;;
19111;SDS011;9688;51.906;8.376;2023-02-17T04:52:54;38.77;;;23.97;;
19111;SDS011;9688;51.906;8.376;2023-02-17T04:55:40;38.30;;;22.30;;
19111;SDS011;9688;51.906;8.376;2023-02-17T04:58:26;36.83;;;22.50;;
19111;SDS011;9688;51.906;8.376;2023-02-17T05:01:12;31.80;;;20.63;;
19111;SDS011;9688;51.906;8.376;2023-02-17T05:03:59;31.73;;;20.10;;
19111;SDS011;9688;51.906;8.376;2023-02-17T05:06:45;33.30;;;20.87;;
19111;SDS011;9688;51.906;8.376;2023-02-17T05:09:30;31.83;;;19.63;;
19111;SDS011;9688;51.906;8.376;2023-02-17T05:12:16;31.13;;;19.30;;
19111;SDS011;9688;51.906;8.376;2023-02-17T05:15:03;29.87;;;17.63;;
19111;SDS011;9688;51.906;8.376;2023-02-17T05:17:49;28.43;;;17.17;;
19111;SDS011;9688;51.906;8.376;2023-02-17T05:20:36;31.00;;;17.77;;
19111;SDS011;9688;51.906;8.376;2023-02-17T05:23:22;33.07;;;18.67;;
19111;SDS011;9688;51.906;8.376;2023-02-17T05:26:08;26.63;;;17.90;;
19111;SDS011;9688;51.906;8.376;2023-02-17T05:28:54;29.23;;;18.03;;
19111;SDS011;9688;51.906;8.376;2023-02-17T05:31:40;28.50;;;18.27;;
19111;SDS011;9688;51.906;8.376;2023-02-17T05:34:25;27.90;;;18.17;;
19111;SDS011;9688;51.906;8.376;2023-02-17T05:37:13;27.30;;;15.87;;
19111;SDS011;9688;51.906;8.376;2023-02-17T05:39:58;26.43;;;17.17;;
19111;SDS011;9688;51.906;8.376;2023-02-17T05:42:49;23.43;;;15.63;;
19111;SDS011;9688;51.906;8.376;2023-02-17T05:45:35;28.57;;;16.90;;
19111;SDS011;9688;51.906;8.376;2023-02-17T05:48:21;23.30;;;15.07;;
19111;SDS011;9688;51.906;8.376;2023-02-17T05:51:07;24.57;;;15.50;;
19111;SDS011;9688;51.906;8.376;2023-02-17T05:53:54;23.17;;;16.40;;
19111;SDS011;9688;51.906;8.376;2023-02-17T05:56:40;23.87;;;14.77;;
19111;SDS011;9688;51.906;8.376;2023-02-17T05:59:26;23.37;;;14.50;;
19111;SDS011;9688;51.906;8.376;2023-02-17T06:02:11;21.70;;;14.13;;
19111;SDS011;9688;51.906;8.376;2023-02-17T06:04:57;20.97;;;13.80;;
19111;SDS011;9688;51.906;8.376;2023-02-17T06:07:43;20.07;;;13.70;;
19111;SDS011;9688;51.906;8.376;2023-02-17T06:10:30;20.70;;;13.93;;
19111;SDS011;9688;51.906;8.376;2023-02-17T06:13:16;18.47;;;13.20;;
19111;SDS011;9688;51.906;8.376;2023-02-17T06:16:02;22.03;;;14.63;;
19111;SDS011;9688;51.906;8.376;2023-02-17T06:18:47;23.00;;;14.20;;
19111;SDS011;9688;51.906;8.376;2023-02-17T06:21:34;20.43;;;13.40;;
19111;SDS011;9688;51.906;8.376;2023-02-17T06:24:20;18.67;;;13.27;;
19111;SDS011;9688;51.906;8.376;2023-02-17T06:27:07;20.37;;;13.20;;
19111;SDS011;9688;51.906;8.376;2023-02-17T06:29:53;18.70;;;12.27;;
19111;SDS011;9688;51.906;8.376;2023-02-17T06:32:39;16.60;;;11.70;;
19111;SDS011;9688;51.906;8.376;2023-02-17T06:35:25;16.93;;;12.13;;
19111;SDS011;9688;51.906;8.376;2023-02-17T06:38:12;16.27;;;11.07;;
19111;SDS011;9688;51.906;8.376;2023-02-17T06:40:58;20.03;;;12.60;;
19111;SDS011;9688;51.906;8.376;2023-02-17T06:43:45;16.10;;;11.13;;
19111;SDS011;9688;51.906;8.376;2023-02-17T06:46:32;16.00;;;11.63;;
19111;SDS011;9688;51.906;8.376;2023-02-17T06:49:20;15.87;;;11.13;;
19111;SDS011;9688;51.906;8.376;2023-02-17T06:52:07;17.57;;;11.33;;
19111;SDS011;9688;51.906;8.376;2023-02-17T06:54:54;14.97;;;11.50;;
19111;SDS011;9688;51.906;8.376;2023-02-17T06:57:40;18.90;;;11.67;;
19111;SDS011;9688;51.906;8.376;2023-02-17T07:00:27;17.03;;;11.43;;
19111;SDS011;9688;51.906;8.376;2023-02-17T07:03:13;21.10;;;12.80;;
19111;SDS011;9688;51.906;8.376;2023-02-17T07:05:59;17.10;;;12.03;;
19111;SDS011;9688;51.906;8.376;2023-02-17T07:08:45;17.97;;;11.70;;
19111;SDS011;9688;51.906;8.376;2023-02-17T07:11:31;19.57;;;12.43;;
19111;SDS011;9688;51.906;8.376;2023-02-17T07:14:17;18.63;;;11.83;;
19111;SDS011;9688;51.906;8.376;2023-02-17T07:17:04;21.17;;;12.30;;
19111;SDS011;9688;51.906;8.376;2023-02-17T07:19:49;18.07;;;12.13;;
19111;SDS011;9688;51.906;8.376;2023-02-17T07:22:35;15.13;;;11.23;;
19111;SDS011;9688;51.906;8.376;2023-02-17T07:25:21;16.10;;;11.23;;
19111;SDS011;9688;51.906;8.376;2023-02-17T07:28:08;14.73;;;11.10;;
19111;SDS011;9688;51.906;8.376;2023-02-17T07:30:54;16.77;;;11.50;;
19111;SDS011;9688;51.906;8.376;2023-02-17T07:33:42;17.17;;;11.33;;
19111;SDS011;9688;51.906;8.376;2023-02-17T07:36:28;16.70;;;11.37;;
19111;SDS011;9688;51.906;8.376;2023-02-17T07:39:14;17.60;;;11.67;;
19111;SDS011;9688;51.906;8.376;2023-02-17T07:42:01;17.67;;;11.93;;
19111;SDS011;9688;51.906;8.376;2023-02-17T07:44:47;17.83;;;12.40;;
19111;SDS011;9688;51.906;8.376;2023-02-17T07:47:34;16.97;;;12.27;;
19111;SDS011;9688;51.906;8.376;2023-02-17T07:50:22;20.63;;;12.10;;
19111;SDS011;9688;51.906;8.376;2023-02-17T07:53:08;16.40;;;11.83;;
19111;SDS011;9688;51.906;8.376;2023-02-17T07:55:53;20.23;;;12.37;;
19111;SDS011;9688;51.906;8.376;2023-02-17T07:58:40;20.43;;;13.00;;
19111;SDS011;9688;51.906;8.376;2023-02-17T08:01:29;18.83;;;11.97;;
19111;SDS011;9688;51.906;8.376;2023-02-17T08:04:17;17.63;;;12.83;;
19111;SDS011;9688;51.906;8.376;2023-02-17T08:07:05;15.63;;;11.30;;
19111;SDS011;9688;51.906;8.376;2023-02-17T08:09:52;20.13;;;12.13;;
19111;SDS011;9688;51.906;8.376;2023-02-17T08:12:56;16.27;;;11.17;;
19111;SDS011;9688;51.906;8.376;2023-02-17T08:16:00;19.60;;;11.50;;
19111;SDS011;9688;51.906;8.376;2023-02-17T08:18:45;18.23;;;12.10;;
19111;SDS011;9688;51.906;8.376;2023-02-17T08:21:33;17.53;;;11.47;;
19111;SDS011;9688;51.906;8.376;2023-02-17T08:24:21;16.17;;;11.40;;
19111;SDS011;9688;51.906;8.376;2023-02-17T08:27:07;15.93;;;11.67;;
19111;SDS011;9688;51.906;8.376;2023-02-17T08:29:53;19.30;;;11.40;;
19111;SDS011;9688;51.906;8.376;2023-02-17T08:32:39;16.87;;;11.73;;
19111;SDS011;9688;51.906;8.376;2023-02-17T08:35:25;17.37;;;12.57;;
19111;SDS011;9688;51.906;8.376;2023-02-17T08:38:13;18.27;;;12.47;;
19111;SDS011;9688;51.906;8.376;2023-02-17T08:41:01;16.67;;;12.03;;
19111;SDS011;9688;51.906;8.376;2023-02-17T08:43:59;17.63;;;12.47;;
19111;SDS011;9688;51.906;8.376;2023-02-17T08:46:47;18.50;;;12.23;;
19111;SDS011;9688;51.906;8.376;2023-02-17T08:49:34;18.63;;;12.77;;
19111;SDS011;9688;51.906;8.376;2023-02-17T08:52:21;21.20;;;12.43;;
19111;SDS011;9688;51.906;8.376;2023-02-17T08:55:09;19.13;;;13.10;;
19111;SDS011;9688;51.906;8.376;2023-02-17T08:57:57;21.53;;;12.90;;
19111;SDS011;9688;51.906;8.376;2023-02-17T09:00:51;18.70;;;13.80;;
19111;SDS011;9688;51.906;8.376;2023-02-17T09:03:37;21.30;;;13.10;;
19111;SDS011;9688;51.906;8.376;2023-02-17T09:06:23;21.60;;;13.70;;
19111;SDS011;9688;51.906;8.376;2023-02-17T09:09:18;20.97;;;14.07;;
19111;SDS011;9688;51.906;8.376;2023-02-17T09:12:06;21.37;;;13.97;;
19111;SDS011;9688;51.906;8.376;2023-02-17T09:14:53;20.63;;;13.70;;
19111;SDS011;9688;51.906;8.376;2023-02-17T09:17:39;19.70;;;13.47;;
19111;SDS011;9688;51.906;8.376;2023-02-17T09:20:26;22.77;;;13.57;;
19111;SDS011;9688;51.906;8.376;2023-02-17T09:23:11;17.93;;;12.83;;
19111;SDS011;9688;51.906;8.376;2023-02-17T09:26:02;24.13;;;13.23;;
19111;SDS011;9688;51.906;8.376;2023-02-17T09:28:52;20.90;;;13.67;;
19111;SDS011;9688;51.906;8.376;2023-02-17T09:31:42;21.23;;;13.60;;
19111;SDS011;9688;51.906;8.376;2023-02-17T09:34:29;21.10;;;14.27;;
19111;SDS011;9688;51.906;8.376;2023-02-17T09:37:15;19.33;;;14.27;;
19111;SDS011;9688;51.906;8.376;2023-02-17T09:40:05;21.90;;;14.07;;
19111;SDS011;9688;51.906;8.376;2023-02-17T09:42:52;23.87;;;14.23;;
19111;SDS011;9688;51.906;8.376;2023-02-17T09:45:38;23.93;;;14.80;;
19111;SDS011;9688;51.906;8.376;2023-02-17T09:48:34;21.87;;;14.67;;
19111;SDS011;9688;51.906;8.376;2023-02-17T09:51:22;21.20;;;15.00;;
19111;SDS011;9688;51.906;8.376;2023-02-17T09:54:14;22.10;;;15.60;;
19111;SDS011;9688;51.906;8.376;2023-02-17T09:57:03;26.30;;;16.17;;
19111;SDS011;9688;51.906;8.376;2023-02-17T09:59:58;25.87;;;15.90;;
19111;SDS011;9688;51.906;8.376;2023-02-17T10:02:53;25.50;;;16.13;;
19111;SDS011;9688;51.906;8.376;2023-02-17T10:05:52;27.13;;;16.20;;
19111;SDS011;9688;51.906;8.376;2023-02-17T10:08:54;26.07;;;16.10;;
19111;SDS011;9688;51.906;8.376;2023-02-17T10:11:49;20.93;;;15.17;;
19111;SDS011;9688;51.906;8.376;2023-02-17T10:14:41;25.37;;;15.47;;
19111;SDS011;9688;51.906;8.376;2023-02-17T10:17:33;23.13;;;14.73;;
19111;SDS011;9688;51.906;8.376;2023-02-17T10:20:25;23.53;;;15.30;;
19111;SDS011;9688;51.906;8.376;2023-02-17T10:23:22;20.00;;;14.10;;
19111;SDS011;9688;51.906;8.376;2023-02-17T10:26:11;19.83;;;13.80;;
19111;SDS011;9688;51.906;8.376;2023-02-17T10:29:19;21.50;;;14.37;;
19111;SDS011;9688;51.906;8.376;2023-02-17T10:32:19;21.43;;;14.47;;
19111;SDS011;9688;51.906;8.376;2023-02-17T10:35:11;22.07;;;14.20;;
19111;SDS011;9688;51.906;8.376;2023-02-17T10:38:05;20.07;;;13.90;;
19111;SDS011;9688;51.906;8.376;2023-02-17T10:41:03;20.90;;;14.53;;
19111;SDS011;9688;51.906;8.376;2023-02-17T10:43:54;18.87;;;13.43;;
19111;SDS011;9688;51.906;8.376;2023-02-17T10:46:41;20.97;;;14.63;;
19111;SDS011;9688;51.906;8.376;2023-02-17T10:49:28;22.00;;;14.93;;
19111;SDS011;9688;51.906;8.376;2023-02-17T10:52:17;21.37;;;15.17;;
19111;SDS011;9688;51.906;8.376;2023-02-17T10:55:06;21.10;;;15.23;;
19111;SDS011;9688;51.906;8.376;2023-02-17T10:57:59;20.67;;;13.83;;
19111;SDS011;9688;51.906;8.376;2023-02-17T11:00:51;20.93;;;14.93;;
19111;SDS011;9688;51.906;8.376;2023-02-17T11:03:39;22.07;;;14.50;;
19111;SDS011;9688;51.906;8.376;2023-02-17T11:06:28;26.53;;;17.10;;
19111;SDS011;9688;51.906;8.376;2023-02-17T11:09:20;25.90;;;17.33;;
19111;SDS011;9688;51.906;8.376;2023-02-17T11:12:13;55.03;;;21.03;;
19111;SDS011;9688;51.906;8.376;2023-02-17T11:15:13;23.70;;;20.10;;
19111;SDS011;9688;51.906;8.376;2023-02-17T11:18:08;17.73;;;13.60;;
19111;SDS011;9688;51.906;8.376;2023-02-17T11:21:00;17.63;;;13.53;;
19111;SDS011;9688;51.906;8.376;2023-02-17T11:23:48;15.20;;;12.77;;
19111;SDS011;9688;51.906;8.376;2023-02-17T11:26:37;17.07;;;12.73;;
19111;SDS011;9688;51.906;8.376;2023-02-17T11:29:24;15.83;;;13.17;;
19111;SDS011;9688;51.906;8.376;2023-02-17T11:32:12;16.33;;;13.20;;
19111;SDS011;9688;51.906;8.376;2023-02-17T11:35:01;15.50;;;12.13;;
19111;SDS011;9688;51.906;8.376;2023-02-17T11:37:51;16.63;;;12.90;;
19111;SDS011;9688;51.906;8.376;2023-02-17T11:40:51;15.10;;;11.90;;
19111;SDS011;9688;51.906;8.376;2023-02-17T11:43:49;14.27;;;12.03;;
19111;SDS011;9688;51.906;8.376;2023-02-17T11:46:39;14.77;;;12.13;;
19111;SDS011;9688;51.906;8.376;2023-02-17T11:49:48;19.90;;;13.33;;
19111;SDS011;9688;51.906;8.376;2023-02-17T11:52:53;16.87;;;12.50;;
19111;SDS011;9688;51.906;8.376;2023-02-17T11:55:49;16.67;;;11.43;;
19111;SDS011;9688;51.906;8.376;2023-02-17T11:58:57;13.83;;;11.20;;
19111;SDS011;9688;51.906;8.376;2023-02-17T12:02:13;15.27;;;10.70;;
19111;SDS011;9688;51.906;8.376;2023-02-17T12:05:12;13.90;;;11.40;;
19111;SDS011;9688;51.906;8.376;2023-02-17T12:08:10;16.93;;;11.53;;
19111;SDS011;9688;51.906;8.376;2023-02-17T12:11:03;16.53;;;12.00;;
19111;SDS011;9688;51.906;8.376;2023-02-17T12:14:01;16.40;;;12.60;;
19111;SDS011;9688;51.906;8.376;2023-02-17T12:17:04;18.57;;;12.67;;
19111;SDS011;9688;51.906;8.376;2023-02-17T12:20:00;15.23;;;11.87;;
19111;SDS011;9688;51.906;8.376;2023-02-17T12:23:02;16.67;;;12.27;;
19111;SDS011;9688;51.906;8.376;2023-02-17T12:25:58;17.57;;;12.77;;
19111;SDS011;9688;51.906;8.376;2023-02-17T12:28:54;14.87;;;11.70;;
19111;SDS011;9688;51.906;8.376;2023-02-17T12:31:55;15.73;;;12.07;;
19111;SDS011;9688;51.906;8.376;2023-02-17T12:34:52;13.27;;;11.73;;
19111;SDS011;9688;51.906;8.376;2023-02-17T12:37:45;13.33;;;11.93;;
19111;SDS011;9688;51.906;8.376;2023-02-17T12:40:38;13.90;;;12.27;;
19111;SDS011;9688;51.906;8.376;2023-02-17T12:43:29;14.70;;;11.90;;
19111;SDS011;9688;51.906;8.376;2023-02-17T12:46:22;16.03;;;11.47;;
19111;SDS011;9688;51.906;8.376;2023-02-17T12:49:17;13.27;;;10.80;;
19111;SDS011;9688;51.906;8.376;2023-02-17T12:52:09;14.77;;;11.37;;
19111;SDS011;9688;51.906;8.376;2023-02-17T12:55:09;13.70;;;11.53;;
19111;SDS011;9688;51.906;8.376;2023-02-17T12:58:06;13.43;;;10.63;;
19111;SDS011;9688;51.906;8.376;2023-02-17T13:01:02;12.80;;;11.23;;
19111;SDS011;9688;51.906;8.376;2023-02-17T13:03:51;13.50;;;10.50;;
19111;SDS011;9688;51.906;8.376;2023-02-17T13:06:38;10.57;;;9.47;;
19111;SDS011;9688;51.906;8.376;2023-02-17T13:09:31;11.87;;;8.80;;
19111;SDS011;9688;51.906;8.376;2023-02-17T13:12:37;7.57;;;6.73;;
19111;SDS011;9688;51.906;8.376;2023-02-17T13:15:37;7.00;;;5.97;;
19111;SDS011;9688;51.906;8.376;2023-02-17T13:18:27;8.17;;;6.63;;
19111;SDS011;9688;51.906;8.376;2023-02-17T13:21:15;6.80;;;5.83;;
19111;SDS011;9688;51.906;8.376;2023-02-17T13:24:02;7.53;;;5.50;;
19111;SDS011;9688;51.906;8.376;2023-02-17T13:26:51;8.27;;;5.73;;
19111;SDS011;9688;51.906;8.376;2023-02-17T13:29:36;6.53;;;5.77;;
19111;SDS011;9688;51.906;8.376;2023-02-17T13:32:27;6.93;;;5.87;;
19111;SDS011;9688;51.906;8.376;2023-02-17T13:35:27;7.77;;;6.17;;
19111;SDS011;9688;51.906;8.376;2023-02-17T13:38:24;8.27;;;6.83;;
19111;SDS011;9688;51.906;8.376;2023-02-17T13:41:13;7.90;;;6.87;;
19111;SDS011;9688;51.906;8.376;2023-02-17T13:44:11;7.57;;;6.43;;
19111;SDS011;9688;51.906;8.376;2023-02-17T13:47:11;7.77;;;6.67;;
19111;SDS011;9688;51.906;8.376;2023-02-17T13:50:05;7.57;;;5.90;;
19111;SDS011;9688;51.906;8.376;2023-02-17T13:53:21;7.13;;;5.40;;
19111;SDS011;9688;51.906;8.376;2023-02-17T13:56:22;7.30;;;6.17;;
19111;SDS011;9688;51.906;8.376;2023-02-17T13:59:12;7.53;;;5.87;;
19111;SDS011;9688;51.906;8.376;2023-02-17T14:02:01;7.43;;;6.47;;
19111;SDS011;9688;51.906;8.376;2023-02-17T14:04:48;8.67;;;6.57;;
19111;SDS011;9688;51.906;8.376;2023-02-17T14:07:36;7.30;;;6.20;;
19111;SDS011;9688;51.906;8.376;2023-02-17T14:10:24;11.17;;;6.90;;
19111;SDS011;9688;51.906;8.376;2023-02-17T14:13:16;7.60;;;6.80;;
19111;SDS011;9688;51.906;8.376;2023-02-17T14:16:02;9.53;;;7.10;;
19111;SDS011;9688;51.906;8.376;2023-02-17T14:18:49;10.37;;;6.90;;
19111;SDS011;9688;51.906;8.376;2023-02-17T14:21:55;7.97;;;6.33;;
19111;SDS011;9688;51.906;8.376;2023-02-17T14:24:47;10.83;;;6.77;;
19111;SDS011;9688;51.906;8.376;2023-02-17T14:27:44;9.50;;;7.30;;
19111;SDS011;9688;51.906;8.376;2023-02-17T14:30:33;9.83;;;7.10;;
19111;SDS011;9688;51.906;8.376;2023-02-17T14:33:23;8.20;;;6.77;;
19111;SDS011;9688;51.906;8.376;2023-02-17T14:36:10;12.17;;;7.07;;
19111;SDS011;9688;51.906;8.376;2023-02-17T14:38:57;10.97;;;7.27;;
19111;SDS011;9688;51.906;8.376;2023-02-17T14:41:46;8.20;;;6.90;;
19111;SDS011;9688;51.906;8.376;2023-02-17T14:44:32;7.63;;;6.73;;
19111;SDS011;9688;51.906;8.376;2023-02-17T14:47:18;8.87;;;6.60;;
19111;SDS011;9688;51.906;8.376;2023-02-17T14:50:06;7.43;;;6.40;;
19111;SDS011;9688;51.906;8.376;2023-02-17T14:53:01;7.97;;;6.37;;
19111;SDS011;9688;51.906;8.376;2023-02-17T14:55:49;7.97;;;6.23;;
19111;SDS011;9688;51.906;8.376;2023-02-17T14:58:40;7.47;;;6.17;;
19111;SDS011;9688;51.906;8.376;2023-02-17T15:01:26;12.33;;;7.40;;
19111;SDS011;9688;51.906;8.376;2023-02-17T15:04:12;9.40;;;7.17;;
19111;SDS011;9688;51.906;8.376;2023-02-17T15:06:59;10.37;;;7.53;;
19111;SDS011;9688;51.906;8.376;2023-02-17T15:09:49;10.80;;;7.50;;
19111;SDS011;9688;51.906;8.376;2023-02-17T15:12:39;9.60;;;7.60;;
19111;SDS011;9688;51.906;8.376;2023-02-17T15:15:26;10.23;;;7.57;;
19111;SDS011;9688;51.906;8.376;2023-02-17T15:18:12;9.93;;;7.57;;
19111;SDS011;9688;51.906;8.376;2023-02-17T15:21:06;8.93;;;7.37;;
19111;SDS011;9688;51.906;8.376;2023-02-17T15:24:02;10.17;;;7.60;;
19111;SDS011;9688;51.906;8.376;2023-02-17T15:26:57;8.73;;;7.40;;
19111;SDS011;9688;51.906;8.376;2023-02-17T15:29:44;7.77;;;6.77;;
19111;SDS011;9688;51.906;8.376;2023-02-17T15:32:35;8.73;;;7.13;;
19111;SDS011;9688;51.906;8.376;2023-02-17T15:35:24;8.90;;;7.07;;
19111;SDS011;9688;51.906;8.376;2023-02-17T15:38:11;10.63;;;6.97;;
19111;SDS011;9688;51.906;8.376;2023-02-17T15:41:00;9.43;;;6.77;;
19111;SDS011;9688;51.906;8.376;2023-02-17T15:43:47;8.80;;;6.30;;
19111;SDS011;9688;51.906;8.376;2023-02-17T15:46:35;9.83;;;6.60;;
19111;SDS011;9688;51.906;8.376;2023-02-17T15:49:24;7.87;;;6.43;;
19111;SDS011;9688;51.906;8.376;2023-02-17T15:52:14;10.43;;;6.97;;
19111;SDS011;9688;51.906;8.376;2023-02-17T15:55:00;9.47;;;7.00;;
19111;SDS011;9688;51.906;8.376;2023-02-17T15:57:47;9.07;;;6.67;;
19111;SDS011;9688;51.906;8.376;2023-02-17T16:00:35;6.87;;;6.07;;
19111;SDS011;9688;51.906;8.376;2023-02-17T16:03:20;8.87;;;6.43;;
19111;SDS011;9688;51.906;8.376;2023-02-17T16:06:08;8.07;;;6.73;;
19111;SDS011;9688;51.906;8.376;2023-02-17T16:08:54;10.00;;;7.03;;
19111;SDS011;9688;51.906;8.376;2023-02-17T16:11:44;9.40;;;6.70;;
19111;SDS011;9688;51.906;8.376;2023-02-17T16:14:33;11.57;;;6.97;;
19111;SDS011;9688;51.906;8.376;2023-02-17T16:17:20;9.07;;;6.30;;
19111;SDS011;9688;51.906;8.376;2023-02-17T16:20:10;8.07;;;6.30;;
19111;SDS011;9688;51.906;8.376;2023-02-17T16:23:02;9.67;;;6.47;;
19111;SDS011;9688;51.906;8.376;2023-02-17T16:25:49;8.50;;;6.10;;
19111;SDS011;9688;51.906;8.376;2023-02-17T16:28:37;11.00;;;6.80;;
19111;SDS011;9688;51.906;8.376;2023-02-17T16:31:24;8.03;;;6.17;;
19111;SDS011;9688;51.906;8.376;2023-02-17T16:34:14;10.23;;;6.43;;
19111;SDS011;9688;51.906;8.376;2023-02-17T16:37:00;7.63;;;5.70;;
19111;SDS011;9688;51.906;8.376;2023-02-17T16:39:49;6.83;;;6.00;;
19111;SDS011;9688;51.906;8.376;2023-02-17T16:42:37;7.43;;;5.40;;
19111;SDS011;9688;51.906;8.376;2023-02-17T16:45:24;7.30;;;6.13;;
19111;SDS011;9688;51.906;8.376;2023-02-17T16:48:12;9.13;;;5.47;;
19111;SDS011;9688;51.906;8.376;2023-02-17T16:51:00;8.10;;;6.40;;
19111;SDS011;9688;51.906;8.376;2023-02-17T16:53:47;8.60;;;5.83;;
19111;SDS011;9688;51.906;8.376;2023-02-17T16:56:35;8.60;;;6.20;;
19111;SDS011;9688;51.906;8.376;2023-02-17T16:59:23;9.27;;;6.40;;
19111;SDS011;9688;51.906;8.376;2023-02-17T17:02:11;10.03;;;5.77;;